NWS Home NWS Lubbock West Texas Mesonet Day over Day changes as of 0212 AM, Thu May 13, 2021

Latest   N   C   S   Daily Sum   3hrΔ   24hrΔ   Soil Data 
Site Map   24hr Precip   72hr Precip   Google Plot


Station Time of Last Temp Today Temp Yesterday Delta-T Dewpoint Today Dewpoint Yesterday Delta-Td Delta-Pressure (mB)
Reese Center  02:05 AM 51.7 48 3.7 45.7 42.9 2.9 1.7
Abernathy  02:05 AM 48.1 47.3 0.9 43.8 41.6 2.1 2
Plainview  02:05 AM 46.6 47.2 -0.6 41.6 42.5 -0.8 2
Tahoka  02:05 AM 50.1 47.8 2.2 46.6 45.3 1.3 2.2
Slaton  02:05 AM 49.8 47.5 2.3 47.1 44.1 3 2
Levelland  02:05 AM 51.1 47 4.1 44.8 45.1 -0.3 1.7
Roaring Springs  02:05 AM 47.4 49.2 -1.9 45 43.5 1.5 2.4
Floydada  02:05 AM 44.7 46.7 -2 42 43.4 -1.3 2.3
Ralls  02:05 AM 46.3 47.4 -1.1 42.1 43.2 -1.1 2.2
Brownfield  02:05 AM 50.9 48.1 2.8 47.4 46.7 0.7 1.9
Muleshoe  02:05 AM 44.7 46.7 -2 38.4 40.9 -2.4 1
Morton  02:05 AM 50.3 47 3.3 43.1 42.6 0.4 1.2
Comanche Springs  02:05 AM 43.9 53 -9 43.2 45.5 -2.3 2.8
O'Donnell  02:05 AM 50.8 48.7 2.1 47.8 47.2 0.6 2.2
Seagraves  02:05 AM 51.8 48 3.8 47.9 47 0.9 1.8
Amherst  02:05 AM 48.8 47.7 1.1 42.6 42.9 -0.2 1.2
Plains  02:05 AM 51.8 46.6 5.1 45.7 45.4 0.3 1.5
Lamesa  02:05 AM 51.3 49.4 1.9 45.9 46.1 -0.2 2.4
Hart  02:05 AM 45.1 46 -0.8 40.3 41.5 -1.2 1.9
Friona  02:05 AM 46.1 43.7 2.4 39.7 40.1 -0.3 1.1
Dimmitt  02:05 AM 45.2 43.6 1.6 39.8 40.1 -0.3 1.8
Tulia  02:05 AM 44 46.5 -2.5 39 40.3 -1.3 2.2
Silverton  02:05 AM 43.6 47.1 -3.5 41.1 42.8 -1.7 2.2
Post  02:05 AM 50.5 49.9 0.6 48.2 46.5 1.6 2.3
Seminole  02:05 AM 51.8 48.8 3 47.1 47.2 -0.1 2
Gail  02:05 AM 50.2 50.3 -0.1 46.6 47.5 -0.8 2.8
White River Lake  02:05 AM 50.4 49.2 1.2 48.1 43.7 4.3 2.4
Graham  02:05 AM 51.4 49.1 2.2 47.3 46.6 0.7 2.3
Sundown  02:05 AM 50.2 46.8 3.4 44.2 44.4 -0.2 1.7
Anton  02:05 AM 50.4 47.6 2.8 43.5 42.5 1 1.6
Fluvanna  02:05 AM 48.1 48.6 -0.5 44.9 46 -1.2 2.8
Spur  02:05 AM 49.8 51.4 -1.5 47.3 45.2 2.1 2.5
Northwest Lubbock  02:05 AM 51.6 47.9 3.7 46.2 43 3.2 1.9
Guthrie  02:05 AM 49.3 51.6 -2.4 48.1 45.5 2.6 2.9
Clarendon  02:05 AM 46.2 45.3 0.9 41 40.5 0.6 2.5
Paducah  02:05 AM 51.3 51.4 -0.1 49 45.1 4 2.8
Snyder  02:05 AM 50.2 50.1 0.1 46.9 48.4 -1.5 3.1
Memphis  02:05 AM 48.4 49.4 -0.9 41.2 41.9 -0.7 2.7
Jayton  02:05 AM 51.2 50.7 0.5 49.6 49.2 0.4 2.8
Pampa  02:05 AM 44.5 45.7 -1.3 40.9 41.3 -0.5 1.9
Aspermont  02:05 AM 46.7 51 -4.3 46.4 50.2 -3.8 2.7
Hereford  02:05 AM 47.8 43.8 3.9 40.2 40.5 -0.3 1.5
Goodlett  02:05 AM 49 50.5 -1.5 44.9 44.4 0.5 2.6
McLean  02:05 AM 48.3 43.5 4.8 41.7 39.7 2 2.3
Denver City  02:05 AM 51.2 47.5 3.7 46.9 46.6 0.3 1.7
Lake Alan Henry  02:05 AM 50.7 49.5 1.2 48.3 48.1 0.2 2.6
Wolfforth  02:05 AM 49 47.6 1.4 44.8 44.6 0.2 1.9
Andrews  02:05 AM 53.2 50.2 3 47.5 49.6 -2.1 2.4
Turkey  02:05 AM 50.7 50 0.7 43.2 43.8 -0.7 2.2
Childress  02:05 AM 51.3 47.7 3.5 45.2 43.5 1.7 2.6
Tatum  02:05 AM 51 46 4.9 44.4 44.7 -0.3 1.6
Northfield  02:05 AM 48.1 49.8 -1.7 44.1 43.7 0.4 2.4
Dora  02:05 AM 49.6 44.9 4.8 42.3 41.6 0.8 0.8
Northwest San Angelo  02:05 AM 57.8 56.4 1.4 49 50.9 -1.9 4.5
Saint Lawrence  02:05 AM 53.1 53.5 -0.3 48 50.8 -2.8 3.6
Haskell  02:05 AM 54.6 52.5 2.1 52.3 49.5 2.8 3.2
Wall  02:05 AM 57.5 56.7 0.9 50.8 53.8 -3 4.9
Seymour  02:05 AM 56.9 51.8 5.1 53.7 49.6 4.1 3.3
Knox City  02:05 AM 49.4 53.5 -4.1 48.6 49 -0.4 3.1
Guadalupe Mtns Park  02:05 AM 51 49.2 1.7 44.1 48.9 -4.8 3.5
Caprock Canyons   02:05 AM 48.3 49.2 -0.8 43.2 43.9 -0.7 2.2
Odell  02:05 AM 47.8 51.2 -3.5 45.9 46.4 -0.5 3
Coyanosa  02:05 AM 58.6 59 -0.4 48.1 49.7 -1.5 3
Big Lake  02:05 AM 54 55.5 -1.4 49 52.3 -3.4 4
Junction  02:05 AM 57.5 58 -0.5 51.3 55.6 -4.3 6.1
Hobbs  02:05 AM 52 47.8 4.2 45.4 47.2 -1.8 1.9
Canadian  02:05 AM 43.6 44.2 -0.6 40.4 42.9 -2.5 1.3
Palo Duro Canyon State Park Rim  02:05 AM 48.4 44.1 4.3 39.8 39.8 0.1 1.8
Bootleg  02:05 AM 42.7 42 0.7 40 41.8 -1.9 0.9
Sterling City  02:05 AM 49.4 54.3 -4.9 49.4 53.4 -4 3.9
Mertzon  02:05 AM 55.3 55.9 -0.6 50.3 54 -3.7 4.3
Persimmon Gap  02:05 AM 64.7 65.1 -0.4 48.7 59 -10.3 4.8
Weinert  02:05 AM 54.9 52.9 2 52.4 49.4 2.9 3.3
Claude 12 Southwest  02:05 AM 44.5 43.4 1.1 40.2 43.4 -3.3 2.2
Amarillo 7 South Southeast  02:05 AM 41 43.7 -2.7 40.5 41.7 -1.2 1.8
Umbarger  02:05 AM 43.6 43.4 0.2 39.5 39.3 0.2 1.4
Lomax  02:05 AM 50.3 53.2 -3 46.6 50.8 -4.2 3
Amarillo 9 North Northeast  02:05 AM 46.6 44 2.6 40.6 40.7 -0.2 1.7
Aiken  02:05 AM 44.6 46.7 -2 40.7 43.1 -2.4 2.2
Sweetwater  02:05 AM 51.4 50.6 0.8 48.8 49.9 -1 4.2
Dozier  02:05 AM 48.6 46.1 2.5 43.1 42.4 0.7 2.3
Amarillo 15 North Northwest  02:05 AM 46.5 44.9 1.7 39.5 40.2 -0.7 1.6
Menard  02:05 AM 56.3 56.5 -0.2 51.7 55.6 -3.9 5.4
Tarzan  02:05 AM 52.5 50.6 1.9 47.2 50.6 -3.4 2.6
Goodnight  02:05 AM 45.6 43.5 2.1 41 40 0.9 2.3
Boys Ranch   02:05 AM 45.7 46.6 -0.9 40.2 42.8 -2.7 1.3
Fort McKavett  02:05 AM 56 55.6 0.4 51.3 55.6 -4.3 5.4
Fort Chadbourne  02:05 AM 56.8 54.4 2.3 53 52 0.9 4.3
Palo Duro Canyon State Park Floor  02:05 AM 49.2 47.4 1.7 41.2 41 0.3 1.5
Fort Lancaster  02:05 AM 59.1 58.8 0.3 51.2 56.3 -5.1 4.2
Dell City 1N  02:05 AM 51.9 58.3 -6.5 46.3 50.4 -4.1 3.5
Clyde  02:05 AM 55.6 52.2 3.4 51.6 50.9 0.7 4.3
Snyder SSW  02:05 AM 48.5 50.5 -1.9 48.5 50.5 -1.9 3.2
Panhandle  02:05 AM 42.4 45.7 -3.3 40.7 41.8 -1 1.9
Vigo Park  02:05 AM 42.8 44 -1.2 39.8 40.9 -1.2 2.1
Welch  02:05 AM 50.1 48.5 1.6 50.1 48.6 1.6 1.9
Throckmorton  02:05 AM 57.3 51.7 5.6 54.9 51.6 3.3 3.7
Sierra Blanca  02:05 AM 53.9 58.4 -4.4 47.6 51.8 -4.2 4.3
Fort Lewis CO  02:05 AM 34.6 32.3 2.3 11.9 13.1 -1.2 3.5
New Home  02:05 AM 49.4 47.7 1.7 47.4 47.3 0.1 2
McCamey  02:05 AM 56.8 58.4 -1.6 49 51.5 -2.5 4.1
Stamford  02:05 AM 57.2 53.1 4.1 54.6 50.6 3.9 3.3
Crowell  02:05 AM 52.3 52.3 -0.1 50.3 46.1 4.2 2.9
Stinnett  02:05 AM 47.5 45.7 1.8 39.7 44.5 -4.8 1.5
Colorado City  02:05 AM 47.9 51.7 -3.9 46.3 50.1 -3.9 3.6
Happy  02:05 AM 41.6 44.6 -3.1 38.6 40.9 -2.4 1.8
Endee  02:05 AM 46.7 44.4 2.3 40.4 41.8 -1.4 0.1
JA Ranch  02:05 AM 42.2 45.2 -3 40 41.1 -1.1 2.2
Adrian  02:05 AM 44.9 42.3 2.6 38.8 40.6 -1.8 0.9
Lesley  02:00 AM 51 51.5 -0.5 42.1 42.9 -0.7 2.5
Earth  02:05 AM 48.1 47 1.2 40.7 40.6 0.1 1.2
Van Horn  02:05 AM 55.7 58.9 -3.2 47.2 50.6 -3.4 3.5
Rotan  02:05 AM 51.1 51.8 -0.7 49 49.8 -0.8 2.9
Fritch  02:05 AM 47.5 47.4 0.1 39.6 42.2 -2.6 1.6
Estelline  02:05 AM 48.1 50.4 -2.3 43 44.3 -1.2 2.8
Crane  02:05 AM 56.3 57.4 -1.1 48 50.8 -2.8 3.1
Hackberry  02:05 AM 50.7 52.5 -1.8 49.3 45.6 3.7 2.8
Romero 11SSW  02:05 AM 48.1 44 4 41.4 42.4 -0.9 0.9
Palo Duro Reservoir 1NW  02:05 AM 49.3 46.3 3 40.7 42.7 -2 0.8
South Plains 3ENE  02:05 AM 43.1 47.3 -4.3 41.6 43.2 -1.6 2.1
Lake McClellan 2NW  02:05 AM 48 44.6 3.4 41.1 40.7 0.3 2.5
Segovia 7SSW  02:05 AM 55.6 56 -0.4 50.7 55.3 -4.6 6.1
Castolon 1NW BBNP  02:05 AM 66.2 76 -9.7 50.8 58.2 -7.3 6.6
Smyer  02:05 AM 50.7 47.4 3.3 44.3 44.5 -0.2 1.7
Doole 3WNW  02:05 AM 56.5 57.2 -0.6 52.3 53.6 -1.3 5.2
Stratford  02:05 AM 45.7 43.7 2 41.3 42.1 -0.8 0.9
Truscott  02:05 AM 49.7 52.9 -3.2 48.3 46.2 2.1 3
Hefner  02:05 AM 56.9 52.7 4.2 53.7 48.5 5.1 3
Kent I10-I20 Split  02:05 AM 58.1 55.3 2.8 48.8 53.7 -4.8 2.6
Olton  02:05 AM 44.2 46.8 -2.5 40.3 42.8 -2.5 1.8
McAdoo  02:05 AM 46.3 47.2 -0.9 44.7 43.4 1.3 2.6
Borger  02:05 AM 45.5 47 -1.6 40.8 41.6 -0.7 1.6
Vega  02:05 AM 44.9 43 1.8 39.2 41.1 -1.9 1.5
Wellington  02:05 AM 48.8 47.1 1.7 41.8 41.7 0 2.4

West Texas Mesonet Home   Site Map/Menu  NWS Lubbock Soil Data  Daily Summary Page  24hr Precip  72hr Precip  Google Plot